Dott, West Virginia
Current Conditions -  °F | °C
As of 7:52 PM on Friday 24 Oct 2014 (Local Time) from KBLF Reporting Station
Clear Clear  
Wind Chill: 50°   Ceiling: Unl
Heat Index: 50°   Visibility: 10mi
Dew Point: 36°   Wind: 6mph
Humidity: 59%   Direction: 270°W
Pressure: 30.08"   Gusts: NA
Location:  37.4544°N, 81.2833°W
Report Text: KBLF 242352Z AUTO 27005KT 10SM CLR 10/02 A3008 RMK AO2 SLP182 T01000022 10156 20100 53007
Loading
Personal Weather Stations






























Interactive Weather Map
Tropical Storm Tracking
New forecast layout! Learn more

10-Day Weather Forecast

Advertisements
Track Severe Weather on mobile